sensor_id;sensor_type;location;lat;lon;timestamp;P1;durP1;ratioP1;P2;durP2;ratioP2
70981;SDS011;58640;51.320;9.456;2022-08-19T00:00:25;12.05;;;9.70;;
70981;SDS011;58640;51.320;9.456;2022-08-19T00:02:50;11.38;;;8.57;;
70981;SDS011;58640;51.320;9.456;2022-08-19T00:05:16;11.90;;;9.32;;
70981;SDS011;58640;51.320;9.456;2022-08-19T00:07:42;9.63;;;8.63;;
70981;SDS011;58640;51.320;9.456;2022-08-19T00:10:09;13.85;;;9.55;;
70981;SDS011;58640;51.320;9.456;2022-08-19T00:12:36;12.45;;;9.50;;
70981;SDS011;58640;51.320;9.456;2022-08-19T00:15:06;12.15;;;9.10;;
70981;SDS011;58640;51.320;9.456;2022-08-19T00:17:37;10.10;;;8.38;;
70981;SDS011;58640;51.320;9.456;2022-08-19T00:20:03;14.05;;;10.10;;
70981;SDS011;58640;51.320;9.456;2022-08-19T00:22:29;13.02;;;9.35;;
70981;SDS011;58640;51.320;9.456;2022-08-19T00:24:54;10.00;;;8.95;;
70981;SDS011;58640;51.320;9.456;2022-08-19T00:27:19;15.05;;;10.30;;
70981;SDS011;58640;51.320;9.456;2022-08-19T00:29:45;11.63;;;9.68;;
70981;SDS011;58640;51.320;9.456;2022-08-19T00:32:10;12.80;;;9.57;;
70981;SDS011;58640;51.320;9.456;2022-08-19T00:34:37;12.65;;;9.60;;
70981;SDS011;58640;51.320;9.456;2022-08-19T00:37:02;11.07;;;9.38;;
70981;SDS011;58640;51.320;9.456;2022-08-19T00:39:28;11.35;;;9.30;;
70981;SDS011;58640;51.320;9.456;2022-08-19T00:41:53;10.00;;;7.97;;
70981;SDS011;58640;51.320;9.456;2022-08-19T00:44:20;12.45;;;9.05;;
70981;SDS011;58640;51.320;9.456;2022-08-19T00:46:48;11.63;;;9.55;;
70981;SDS011;58640;51.320;9.456;2022-08-19T00:49:17;12.38;;;9.50;;
70981;SDS011;58640;51.320;9.456;2022-08-19T00:51:48;15.70;;;9.98;;
70981;SDS011;58640;51.320;9.456;2022-08-19T00:54:17;13.95;;;8.48;;
70981;SDS011;58640;51.320;9.456;2022-08-19T00:56:44;13.02;;;8.63;;
70981;SDS011;58640;51.320;9.456;2022-08-19T00:59:11;12.45;;;9.52;;
70981;SDS011;58640;51.320;9.456;2022-08-19T01:01:37;10.70;;;9.05;;
70981;SDS011;58640;51.320;9.456;2022-08-19T01:04:05;11.95;;;8.90;;
70981;SDS011;58640;51.320;9.456;2022-08-19T01:06:31;9.75;;;8.45;;
70981;SDS011;58640;51.320;9.456;2022-08-19T01:08:59;16.88;;;9.25;;
70981;SDS011;58640;51.320;9.456;2022-08-19T01:11:25;11.98;;;8.55;;
70981;SDS011;58640;51.320;9.456;2022-08-19T01:13:55;11.88;;;8.25;;
70981;SDS011;58640;51.320;9.456;2022-08-19T01:16:22;11.00;;;7.78;;
70981;SDS011;58640;51.320;9.456;2022-08-19T01:18:50;15.88;;;8.65;;
70981;SDS011;58640;51.320;9.456;2022-08-19T01:21:22;10.57;;;8.45;;
70981;SDS011;58640;51.320;9.456;2022-08-19T01:24:05;10.43;;;8.13;;
70981;SDS011;58640;51.320;9.456;2022-08-19T01:26:31;16.95;;;8.93;;
70981;SDS011;58640;51.320;9.456;2022-08-19T01:29:02;10.45;;;8.25;;
70981;SDS011;58640;51.320;9.456;2022-08-19T01:31:28;15.43;;;8.73;;
70981;SDS011;58640;51.320;9.456;2022-08-19T01:33:57;16.73;;;8.20;;
70981;SDS011;58640;51.320;9.456;2022-08-19T01:36:25;8.43;;;7.63;;
70981;SDS011;58640;51.320;9.456;2022-08-19T01:38:54;9.40;;;7.90;;
70981;SDS011;58640;51.320;9.456;2022-08-19T01:41:20;14.82;;;9.38;;
70981;SDS011;58640;51.320;9.456;2022-08-19T01:43:48;9.30;;;7.78;;
70981;SDS011;58640;51.320;9.456;2022-08-19T01:46:15;16.65;;;9.07;;
70981;SDS011;58640;51.320;9.456;2022-08-19T01:48:42;15.13;;;8.27;;
70981;SDS011;58640;51.320;9.456;2022-08-19T01:51:08;10.98;;;8.32;;
70981;SDS011;58640;51.320;9.456;2022-08-19T01:53:35;16.58;;;9.50;;
70981;SDS011;58640;51.320;9.456;2022-08-19T01:56:01;13.05;;;8.30;;
70981;SDS011;58640;51.320;9.456;2022-08-19T01:58:32;12.75;;;8.20;;
70981;SDS011;58640;51.320;9.456;2022-08-19T02:01:03;15.85;;;8.63;;
70981;SDS011;58640;51.320;9.456;2022-08-19T02:03:30;11.30;;;8.73;;
70981;SDS011;58640;51.320;9.456;2022-08-19T02:05:58;16.80;;;8.80;;
70981;SDS011;58640;51.320;9.456;2022-08-19T02:08:29;13.57;;;9.32;;
70981;SDS011;58640;51.320;9.456;2022-08-19T02:10:55;12.60;;;7.90;;
70981;SDS011;58640;51.320;9.456;2022-08-19T02:13:21;16.23;;;8.95;;
70981;SDS011;58640;51.320;9.456;2022-08-19T02:15:47;13.27;;;8.18;;
70981;SDS011;58640;51.320;9.456;2022-08-19T02:18:12;9.93;;;7.32;;
70981;SDS011;58640;51.320;9.456;2022-08-19T02:20:39;13.38;;;8.93;;
70981;SDS011;58640;51.320;9.456;2022-08-19T02:23:06;12.98;;;8.00;;
70981;SDS011;58640;51.320;9.456;2022-08-19T02:25:32;12.00;;;8.77;;
70981;SDS011;58640;51.320;9.456;2022-08-19T02:27:57;13.07;;;8.85;;
70981;SDS011;58640;51.320;9.456;2022-08-19T02:30:23;13.98;;;8.70;;
70981;SDS011;58640;51.320;9.456;2022-08-19T02:32:49;14.55;;;8.15;;
70981;SDS011;58640;51.320;9.456;2022-08-19T02:35:16;16.65;;;8.18;;
70981;SDS011;58640;51.320;9.456;2022-08-19T02:37:41;13.75;;;9.18;;
70981;SDS011;58640;51.320;9.456;2022-08-19T02:40:27;13.27;;;8.95;;
70981;SDS011;58640;51.320;9.456;2022-08-19T02:42:53;13.20;;;8.23;;
70981;SDS011;58640;51.320;9.456;2022-08-19T02:45:18;10.57;;;7.68;;
70981;SDS011;58640;51.320;9.456;2022-08-19T02:47:44;12.40;;;8.30;;
70981;SDS011;58640;51.320;9.456;2022-08-19T02:50:09;11.10;;;7.45;;
70981;SDS011;58640;51.320;9.456;2022-08-19T02:52:35;12.82;;;7.55;;
70981;SDS011;58640;51.320;9.456;2022-08-19T02:55:01;12.20;;;8.18;;
70981;SDS011;58640;51.320;9.456;2022-08-19T02:57:27;9.45;;;7.03;;
70981;SDS011;58640;51.320;9.456;2022-08-19T02:59:52;13.32;;;7.32;;
70981;SDS011;58640;51.320;9.456;2022-08-19T03:02:18;11.38;;;6.63;;
70981;SDS011;58640;51.320;9.456;2022-08-19T03:04:43;11.10;;;7.38;;
70981;SDS011;58640;51.320;9.456;2022-08-19T03:07:12;9.30;;;6.70;;
70981;SDS011;58640;51.320;9.456;2022-08-19T03:09:38;13.27;;;8.32;;
70981;SDS011;58640;51.320;9.456;2022-08-19T03:12:04;12.80;;;7.22;;
70981;SDS011;58640;51.320;9.456;2022-08-19T03:14:30;10.73;;;7.30;;
70981;SDS011;58640;51.320;9.456;2022-08-19T03:16:57;10.90;;;7.10;;
70981;SDS011;58640;51.320;9.456;2022-08-19T03:19:23;11.00;;;7.72;;
70981;SDS011;58640;51.320;9.456;2022-08-19T03:21:49;10.85;;;7.40;;
70981;SDS011;58640;51.320;9.456;2022-08-19T03:24:16;11.88;;;7.38;;
70981;SDS011;58640;51.320;9.456;2022-08-19T03:26:44;12.82;;;7.85;;
70981;SDS011;58640;51.320;9.456;2022-08-19T03:29:11;10.85;;;7.13;;
70981;SDS011;58640;51.320;9.456;2022-08-19T03:31:37;12.55;;;6.15;;
70981;SDS011;58640;51.320;9.456;2022-08-19T03:34:04;9.00;;;6.32;;
70981;SDS011;58640;51.320;9.456;2022-08-19T03:36:30;11.68;;;6.47;;
70981;SDS011;58640;51.320;9.456;2022-08-19T03:38:57;12.68;;;7.63;;
70981;SDS011;58640;51.320;9.456;2022-08-19T03:41:25;12.07;;;6.28;;
70981;SDS011;58640;51.320;9.456;2022-08-19T03:43:56;12.45;;;6.80;;
70981;SDS011;58640;51.320;9.456;2022-08-19T03:46:23;10.85;;;6.63;;
70981;SDS011;58640;51.320;9.456;2022-08-19T03:48:52;8.98;;;5.88;;
70981;SDS011;58640;51.320;9.456;2022-08-19T03:51:20;9.85;;;6.93;;
70981;SDS011;58640;51.320;9.456;2022-08-19T03:53:48;11.27;;;6.68;;
70981;SDS011;58640;51.320;9.456;2022-08-19T03:56:14;9.95;;;6.47;;
70981;SDS011;58640;51.320;9.456;2022-08-19T03:58:40;9.80;;;6.07;;
70981;SDS011;58640;51.320;9.456;2022-08-19T04:01:07;11.45;;;6.78;;
70981;SDS011;58640;51.320;9.456;2022-08-19T04:03:37;10.27;;;6.35;;
70981;SDS011;58640;51.320;9.456;2022-08-19T04:06:10;15.80;;;8.02;;
70981;SDS011;58640;51.320;9.456;2022-08-19T04:08:41;9.32;;;6.43;;
70981;SDS011;58640;51.320;9.456;2022-08-19T04:11:10;12.65;;;5.88;;
70981;SDS011;58640;51.320;9.456;2022-08-19T04:13:38;13.63;;;6.65;;
70981;SDS011;58640;51.320;9.456;2022-08-19T04:16:03;11.82;;;6.50;;
70981;SDS011;58640;51.320;9.456;2022-08-19T04:18:30;10.25;;;6.13;;
70981;SDS011;58640;51.320;9.456;2022-08-19T04:20:56;8.48;;;6.22;;
70981;SDS011;58640;51.320;9.456;2022-08-19T04:23:22;11.20;;;6.22;;
70981;SDS011;58640;51.320;9.456;2022-08-19T04:25:47;11.80;;;6.40;;
70981;SDS011;58640;51.320;9.456;2022-08-19T04:28:13;12.48;;;6.03;;
70981;SDS011;58640;51.320;9.456;2022-08-19T04:30:46;11.23;;;5.78;;
70981;SDS011;58640;51.320;9.456;2022-08-19T04:33:14;9.68;;;5.63;;
70981;SDS011;58640;51.320;9.456;2022-08-19T04:35:42;14.27;;;6.22;;
70981;SDS011;58640;51.320;9.456;2022-08-19T04:38:09;9.93;;;5.75;;
70981;SDS011;58640;51.320;9.456;2022-08-19T04:40:39;8.63;;;5.63;;
70981;SDS011;58640;51.320;9.456;2022-08-19T04:43:24;11.45;;;6.88;;
70981;SDS011;58640;51.320;9.456;2022-08-19T04:45:49;7.97;;;5.07;;
70981;SDS011;58640;51.320;9.456;2022-08-19T04:48:16;7.72;;;5.85;;
70981;SDS011;58640;51.320;9.456;2022-08-19T04:50:57;7.90;;;4.82;;
70981;SDS011;58640;51.320;9.456;2022-08-19T04:53:24;7.72;;;5.18;;
70981;SDS011;58640;51.320;9.456;2022-08-19T04:55:53;9.73;;;5.05;;
70981;SDS011;58640;51.320;9.456;2022-08-19T04:58:21;11.82;;;5.18;;
70981;SDS011;58640;51.320;9.456;2022-08-19T05:00:46;10.63;;;5.43;;
70981;SDS011;58640;51.320;9.456;2022-08-19T05:03:11;9.37;;;5.47;;
70981;SDS011;58640;51.320;9.456;2022-08-19T05:05:38;8.38;;;4.65;;
70981;SDS011;58640;51.320;9.456;2022-08-19T05:08:05;10.93;;;4.80;;
70981;SDS011;58640;51.320;9.456;2022-08-19T05:10:30;6.75;;;4.55;;
70981;SDS011;58640;51.320;9.456;2022-08-19T05:12:56;12.35;;;5.45;;
70981;SDS011;58640;51.320;9.456;2022-08-19T05:15:22;7.97;;;4.43;;
70981;SDS011;58640;51.320;9.456;2022-08-19T05:17:47;6.68;;;4.90;;
70981;SDS011;58640;51.320;9.456;2022-08-19T05:20:33;6.60;;;4.82;;
70981;SDS011;58640;51.320;9.456;2022-08-19T05:23:17;10.52;;;5.47;;
70981;SDS011;58640;51.320;9.456;2022-08-19T05:25:42;10.50;;;4.97;;
70981;SDS011;58640;51.320;9.456;2022-08-19T05:28:08;7.68;;;5.38;;
70981;SDS011;58640;51.320;9.456;2022-08-19T05:30:33;10.18;;;4.90;;
70981;SDS011;58640;51.320;9.456;2022-08-19T05:32:59;10.38;;;5.28;;
70981;SDS011;58640;51.320;9.456;2022-08-19T05:35:24;7.47;;;4.70;;
70981;SDS011;58640;51.320;9.456;2022-08-19T05:37:50;7.50;;;4.22;;
70981;SDS011;58640;51.320;9.456;2022-08-19T05:40:15;6.60;;;4.43;;
70981;SDS011;58640;51.320;9.456;2022-08-19T05:42:40;9.10;;;4.45;;
70981;SDS011;58640;51.320;9.456;2022-08-19T05:45:06;10.15;;;4.35;;
70981;SDS011;58640;51.320;9.456;2022-08-19T05:47:32;11.65;;;4.50;;
70981;SDS011;58640;51.320;9.456;2022-08-19T05:49:57;5.70;;;4.38;;
70981;SDS011;58640;51.320;9.456;2022-08-19T05:52:23;7.80;;;4.87;;
70981;SDS011;58640;51.320;9.456;2022-08-19T05:54:48;5.72;;;4.32;;
70981;SDS011;58640;51.320;9.456;2022-08-19T05:57:15;7.63;;;4.45;;
70981;SDS011;58640;51.320;9.456;2022-08-19T05:59:41;7.25;;;4.07;;
70981;SDS011;58640;51.320;9.456;2022-08-19T06:02:07;6.55;;;5.07;;
70981;SDS011;58640;51.320;9.456;2022-08-19T06:04:33;4.72;;;4.28;;
70981;SDS011;58640;51.320;9.456;2022-08-19T06:06:59;4.90;;;4.15;;
70981;SDS011;58640;51.320;9.456;2022-08-19T06:09:24;4.95;;;3.70;;
70981;SDS011;58640;51.320;9.456;2022-08-19T06:11:51;9.32;;;3.97;;
70981;SDS011;58640;51.320;9.456;2022-08-19T06:14:20;4.35;;;3.63;;
70981;SDS011;58640;51.320;9.456;2022-08-19T06:16:48;5.68;;;4.15;;
70981;SDS011;58640;51.320;9.456;2022-08-19T06:19:16;6.85;;;4.22;;
70981;SDS011;58640;51.320;9.456;2022-08-19T06:21:43;6.03;;;3.92;;
70981;SDS011;58640;51.320;9.456;2022-08-19T06:24:12;7.13;;;4.22;;
70981;SDS011;58640;51.320;9.456;2022-08-19T06:26:42;6.45;;;4.57;;
70981;SDS011;58640;51.320;9.456;2022-08-19T06:29:09;6.18;;;4.32;;
70981;SDS011;58640;51.320;9.456;2022-08-19T06:31:36;7.10;;;3.65;;
70981;SDS011;58640;51.320;9.456;2022-08-19T06:34:02;6.78;;;4.40;;
70981;SDS011;58640;51.320;9.456;2022-08-19T06:36:31;5.35;;;3.58;;
70981;SDS011;58640;51.320;9.456;2022-08-19T06:39:00;4.43;;;3.63;;
70981;SDS011;58640;51.320;9.456;2022-08-19T06:41:29;5.00;;;3.85;;
70981;SDS011;58640;51.320;9.456;2022-08-19T06:43:55;5.75;;;3.55;;
70981;SDS011;58640;51.320;9.456;2022-08-19T06:46:21;7.05;;;3.42;;
70981;SDS011;58640;51.320;9.456;2022-08-19T06:48:47;5.40;;;3.55;;
70981;SDS011;58640;51.320;9.456;2022-08-19T06:51:16;5.85;;;4.10;;
70981;SDS011;58640;51.320;9.456;2022-08-19T06:53:48;6.68;;;4.28;;
70981;SDS011;58640;51.320;9.456;2022-08-19T06:56:20;10.75;;;4.72;;
70981;SDS011;58640;51.320;9.456;2022-08-19T06:58:50;7.57;;;4.13;;
70981;SDS011;58640;51.320;9.456;2022-08-19T07:01:18;6.20;;;3.40;;
70981;SDS011;58640;51.320;9.456;2022-08-19T07:03:44;5.85;;;3.70;;
70981;SDS011;58640;51.320;9.456;2022-08-19T07:06:11;10.93;;;3.70;;
70981;SDS011;58640;51.320;9.456;2022-08-19T07:08:40;6.45;;;4.13;;
70981;SDS011;58640;51.320;9.456;2022-08-19T07:11:08;5.45;;;3.55;;
70981;SDS011;58640;51.320;9.456;2022-08-19T07:13:34;6.50;;;4.03;;
70981;SDS011;58640;51.320;9.456;2022-08-19T07:18:34;8.43;;;3.97;;
70981;SDS011;58640;51.320;9.456;2022-08-19T07:21:07;5.32;;;3.50;;
70981;SDS011;58640;51.320;9.456;2022-08-19T07:23:34;4.78;;;2.80;;
70981;SDS011;58640;51.320;9.456;2022-08-19T07:26:11;4.85;;;3.20;;
70981;SDS011;58640;51.320;9.456;2022-08-19T07:28:42;5.75;;;3.55;;
70981;SDS011;58640;51.320;9.456;2022-08-19T07:31:10;5.78;;;3.45;;
70981;SDS011;58640;51.320;9.456;2022-08-19T07:33:38;5.32;;;3.20;;
70981;SDS011;58640;51.320;9.456;2022-08-19T07:36:05;5.75;;;3.60;;
70981;SDS011;58640;51.320;9.456;2022-08-19T07:38:33;6.28;;;3.50;;
70981;SDS011;58640;51.320;9.456;2022-08-19T07:41:00;7.47;;;3.55;;
70981;SDS011;58640;51.320;9.456;2022-08-19T07:43:26;7.72;;;4.30;;
70981;SDS011;58640;51.320;9.456;2022-08-19T07:45:52;5.75;;;3.70;;
70981;SDS011;58640;51.320;9.456;2022-08-19T07:48:21;4.28;;;3.35;;
70981;SDS011;58640;51.320;9.456;2022-08-19T07:50:50;5.25;;;3.50;;
70981;SDS011;58640;51.320;9.456;2022-08-19T07:53:15;9.48;;;3.58;;
70981;SDS011;58640;51.320;9.456;2022-08-19T07:55:41;5.25;;;3.90;;
70981;SDS011;58640;51.320;9.456;2022-08-19T07:58:06;4.10;;;3.67;;
70981;SDS011;58640;51.320;9.456;2022-08-19T08:00:32;3.80;;;3.38;;
70981;SDS011;58640;51.320;9.456;2022-08-19T08:02:57;4.50;;;4.00;;
70981;SDS011;58640;51.320;9.456;2022-08-19T08:05:23;5.70;;;3.40;;
70981;SDS011;58640;51.320;9.456;2022-08-19T08:08:07;4.15;;;3.63;;
70981;SDS011;58640;51.320;9.456;2022-08-19T08:10:51;4.10;;;3.25;;
70981;SDS011;58640;51.320;9.456;2022-08-19T08:13:16;6.20;;;3.30;;
70981;SDS011;58640;51.320;9.456;2022-08-19T08:15:42;4.82;;;3.50;;
70981;SDS011;58640;51.320;9.456;2022-08-19T08:18:10;5.80;;;3.42;;
70981;SDS011;58640;51.320;9.456;2022-08-19T08:20:36;7.38;;;4.43;;
70981;SDS011;58640;51.320;9.456;2022-08-19T08:23:02;9.50;;;4.30;;
70981;SDS011;58640;51.320;9.456;2022-08-19T08:25:46;4.80;;;3.80;;
70981;SDS011;58640;51.320;9.456;2022-08-19T08:28:13;6.00;;;3.88;;
70981;SDS011;58640;51.320;9.456;2022-08-19T08:30:38;7.18;;;3.75;;
70981;SDS011;58640;51.320;9.456;2022-08-19T08:33:06;9.15;;;4.15;;
70981;SDS011;58640;51.320;9.456;2022-08-19T08:35:32;7.40;;;4.05;;
70981;SDS011;58640;51.320;9.456;2022-08-19T08:37:58;3.67;;;3.33;;
70981;SDS011;58640;51.320;9.456;2022-08-19T08:45:57;10.38;;;4.05;;
70981;SDS011;58640;51.320;9.456;2022-08-19T08:48:30;6.75;;;3.17;;
70981;SDS011;58640;51.320;9.456;2022-08-19T08:51:05;6.85;;;5.22;;
70981;SDS011;58640;51.320;9.456;2022-08-19T08:53:35;11.45;;;5.07;;
70981;SDS011;58640;51.320;9.456;2022-08-19T08:56:02;6.53;;;3.90;;
70981;SDS011;58640;51.320;9.456;2022-08-19T08:58:42;6.55;;;4.00;;
70981;SDS011;58640;51.320;9.456;2022-08-19T09:01:13;5.55;;;3.92;;
70981;SDS011;58640;51.320;9.456;2022-08-19T09:03:39;7.15;;;4.13;;
70981;SDS011;58640;51.320;9.456;2022-08-19T09:06:07;7.25;;;4.05;;
70981;SDS011;58640;51.320;9.456;2022-08-19T09:11:45;3.80;;;3.03;;
70981;SDS011;58640;51.320;9.456;2022-08-19T09:16:59;3.67;;;2.97;;
70981;SDS011;58640;51.320;9.456;2022-08-19T09:19:28;6.97;;;3.00;;
70981;SDS011;58640;51.320;9.456;2022-08-19T09:21:54;7.22;;;3.17;;
70981;SDS011;58640;51.320;9.456;2022-08-19T09:24:20;4.75;;;3.38;;
70981;SDS011;58640;51.320;9.456;2022-08-19T09:26:45;5.78;;;3.55;;
70981;SDS011;58640;51.320;9.456;2022-08-19T09:29:11;8.13;;;3.47;;
70981;SDS011;58640;51.320;9.456;2022-08-19T09:31:36;4.70;;;3.25;;
70981;SDS011;58640;51.320;9.456;2022-08-19T09:34:03;4.68;;;3.83;;
70981;SDS011;58640;51.320;9.456;2022-08-19T09:36:30;3.80;;;3.20;;
70981;SDS011;58640;51.320;9.456;2022-08-19T09:39:01;7.60;;;3.20;;
70981;SDS011;58640;51.320;9.456;2022-08-19T09:41:28;5.70;;;3.92;;
70981;SDS011;58640;51.320;9.456;2022-08-19T09:43:54;8.15;;;3.40;;
70981;SDS011;58640;51.320;9.456;2022-08-19T09:46:21;4.93;;;3.58;;
70981;SDS011;58640;51.320;9.456;2022-08-19T09:48:48;5.25;;;3.28;;
70981;SDS011;58640;51.320;9.456;2022-08-19T09:51:25;7.00;;;3.45;;
70981;SDS011;58640;51.320;9.456;2022-08-19T09:53:58;4.93;;;3.78;;
70981;SDS011;58640;51.320;9.456;2022-08-19T09:56:25;6.97;;;3.53;;
70981;SDS011;58640;51.320;9.456;2022-08-19T09:58:50;3.38;;;2.90;;
70981;SDS011;58640;51.320;9.456;2022-08-19T10:01:17;5.07;;;3.40;;
70981;SDS011;58640;51.320;9.456;2022-08-19T10:03:46;4.82;;;2.95;;
70981;SDS011;58640;51.320;9.456;2022-08-19T10:06:13;4.90;;;2.72;;
70981;SDS011;58640;51.320;9.456;2022-08-19T10:08:38;5.85;;;2.70;;
70981;SDS011;58640;51.320;9.456;2022-08-19T10:47:45;4.38;;;2.45;;
70981;SDS011;58640;51.320;9.456;2022-08-19T10:50:11;5.90;;;2.72;;
70981;SDS011;58640;51.320;9.456;2022-08-19T10:52:55;3.80;;;2.45;;
70981;SDS011;58640;51.320;9.456;2022-08-19T10:55:21;3.42;;;2.65;;
70981;SDS011;58640;51.320;9.456;2022-08-19T10:58:10;6.32;;;2.75;;
70981;SDS011;58640;51.320;9.456;2022-08-19T11:00:37;6.13;;;2.92;;
70981;SDS011;58640;51.320;9.456;2022-08-19T11:03:03;7.97;;;2.70;;
70981;SDS011;58640;51.320;9.456;2022-08-19T11:05:28;3.75;;;2.55;;
70981;SDS011;58640;51.320;9.456;2022-08-19T11:07:55;4.15;;;2.13;;
70981;SDS011;58640;51.320;9.456;2022-08-19T11:10:20;5.68;;;2.33;;
70981;SDS011;58640;51.320;9.456;2022-08-19T11:12:46;3.10;;;2.47;;
70981;SDS011;58640;51.320;9.456;2022-08-19T11:15:12;2.30;;;2.00;;
70981;SDS011;58640;51.320;9.456;2022-08-19T11:17:40;2.72;;;2.28;;
70981;SDS011;58640;51.320;9.456;2022-08-19T11:20:08;3.13;;;2.05;;
70981;SDS011;58640;51.320;9.456;2022-08-19T11:22:34;2.65;;;2.28;;
70981;SDS011;58640;51.320;9.456;2022-08-19T11:25:00;6.85;;;2.42;;
70981;SDS011;58640;51.320;9.456;2022-08-19T11:27:25;4.28;;;2.00;;
70981;SDS011;58640;51.320;9.456;2022-08-19T11:29:51;3.63;;;2.10;;
70981;SDS011;58640;51.320;9.456;2022-08-19T11:32:17;3.50;;;2.33;;
70981;SDS011;58640;51.320;9.456;2022-08-19T11:34:43;4.68;;;2.22;;
70981;SDS011;58640;51.320;9.456;2022-08-19T11:37:08;2.25;;;2.03;;
70981;SDS011;58640;51.320;9.456;2022-08-19T11:39:34;2.90;;;2.47;;
70981;SDS011;58640;51.320;9.456;2022-08-19T11:42:02;2.08;;;1.88;;
70981;SDS011;58640;51.320;9.456;2022-08-19T11:44:49;2.88;;;1.75;;
70981;SDS011;58640;51.320;9.456;2022-08-19T11:47:15;3.38;;;2.42;;
70981;SDS011;58640;51.320;9.456;2022-08-19T11:49:40;7.18;;;2.35;;
70981;SDS011;58640;51.320;9.456;2022-08-19T11:52:07;7.13;;;2.20;;
70981;SDS011;58640;51.320;9.456;2022-08-19T11:54:32;2.33;;;1.95;;
70981;SDS011;58640;51.320;9.456;2022-08-19T11:56:58;2.83;;;2.35;;
70981;SDS011;58640;51.320;9.456;2022-08-19T11:59:23;3.30;;;2.30;;
70981;SDS011;58640;51.320;9.456;2022-08-19T12:01:48;8.13;;;2.75;;
70981;SDS011;58640;51.320;9.456;2022-08-19T12:04:14;4.82;;;2.15;;
70981;SDS011;58640;51.320;9.456;2022-08-19T12:06:39;9.93;;;3.13;;
70981;SDS011;58640;51.320;9.456;2022-08-19T12:09:06;4.75;;;2.60;;
70981;SDS011;58640;51.320;9.456;2022-08-19T12:11:34;2.83;;;2.47;;
70981;SDS011;58640;51.320;9.456;2022-08-19T12:14:01;7.78;;;2.83;;
70981;SDS011;58640;51.320;9.456;2022-08-19T12:16:28;5.07;;;2.90;;
70981;SDS011;58640;51.320;9.456;2022-08-19T12:18:55;3.03;;;2.47;;
70981;SDS011;58640;51.320;9.456;2022-08-19T12:21:23;2.53;;;2.33;;
70981;SDS011;58640;51.320;9.456;2022-08-19T12:23:54;3.92;;;2.47;;
70981;SDS011;58640;51.320;9.456;2022-08-19T12:26:20;3.58;;;2.20;;
70981;SDS011;58640;51.320;9.456;2022-08-19T12:28:46;2.95;;;2.45;;
70981;SDS011;58640;51.320;9.456;2022-08-19T12:31:13;10.52;;;2.72;;
70981;SDS011;58640;51.320;9.456;2022-08-19T12:33:39;2.67;;;2.45;;
70981;SDS011;58640;51.320;9.456;2022-08-19T12:36:06;4.55;;;2.50;;
70981;SDS011;58640;51.320;9.456;2022-08-19T12:38:34;4.82;;;2.70;;
70981;SDS011;58640;51.320;9.456;2022-08-19T12:41:00;3.30;;;2.10;;
70981;SDS011;58640;51.320;9.456;2022-08-19T12:43:29;2.65;;;2.45;;
70981;SDS011;58640;51.320;9.456;2022-08-19T12:45:55;7.82;;;2.47;;
70981;SDS011;58640;51.320;9.456;2022-08-19T12:48:20;2.58;;;2.28;;
70981;SDS011;58640;51.320;9.456;2022-08-19T12:50:45;3.83;;;2.05;;
70981;SDS011;58640;51.320;9.456;2022-08-19T12:53:11;3.92;;;2.00;;
70981;SDS011;58640;51.320;9.456;2022-08-19T12:55:37;7.03;;;2.17;;
70981;SDS011;58640;51.320;9.456;2022-08-19T12:58:03;2.40;;;1.90;;
70981;SDS011;58640;51.320;9.456;2022-08-19T13:00:28;3.47;;;2.08;;
70981;SDS011;58640;51.320;9.456;2022-08-19T13:02:57;2.92;;;2.17;;
70981;SDS011;58640;51.320;9.456;2022-08-19T13:05:25;2.08;;;1.88;;
70981;SDS011;58640;51.320;9.456;2022-08-19T13:07:53;3.15;;;2.00;;
70981;SDS011;58640;51.320;9.456;2022-08-19T13:10:23;2.53;;;2.17;;
70981;SDS011;58640;51.320;9.456;2022-08-19T13:12:52;3.00;;;2.80;;
70981;SDS011;58640;51.320;9.456;2022-08-19T13:15:18;3.03;;;2.63;;
70981;SDS011;58640;51.320;9.456;2022-08-19T13:17:45;3.47;;;2.78;;
70981;SDS011;58640;51.320;9.456;2022-08-19T13:20:13;3.28;;;2.63;;
70981;SDS011;58640;51.320;9.456;2022-08-19T13:22:38;3.63;;;2.30;;
70981;SDS011;58640;51.320;9.456;2022-08-19T13:25:04;2.95;;;2.55;;
70981;SDS011;58640;51.320;9.456;2022-08-19T13:27:31;4.13;;;2.33;;
70981;SDS011;58640;51.320;9.456;2022-08-19T13:29:56;3.35;;;2.25;;
70981;SDS011;58640;51.320;9.456;2022-08-19T13:32:40;3.22;;;2.05;;
70981;SDS011;58640;51.320;9.456;2022-08-19T13:35:24;4.97;;;1.70;;
70981;SDS011;58640;51.320;9.456;2022-08-19T13:37:49;2.88;;;2.25;;
70981;SDS011;58640;51.320;9.456;2022-08-19T13:40:19;5.22;;;2.20;;
70981;SDS011;58640;51.320;9.456;2022-08-19T13:42:49;2.78;;;2.35;;
70981;SDS011;58640;51.320;9.456;2022-08-19T13:45:18;2.63;;;2.35;;
70981;SDS011;58640;51.320;9.456;2022-08-19T13:47:45;5.70;;;2.47;;
70981;SDS011;58640;51.320;9.456;2022-08-19T13:50:13;2.22;;;2.10;;
70981;SDS011;58640;51.320;9.456;2022-08-19T13:52:40;1.85;;;1.42;;
70981;SDS011;58640;51.320;9.456;2022-08-19T13:55:06;4.18;;;1.92;;
70981;SDS011;58640;51.320;9.456;2022-08-19T13:57:33;1.88;;;1.70;;
70981;SDS011;58640;51.320;9.456;2022-08-19T13:59:59;6.28;;;2.13;;
70981;SDS011;58640;51.320;9.456;2022-08-19T14:02:25;2.85;;;2.00;;
70981;SDS011;58640;51.320;9.456;2022-08-19T14:04:51;2.58;;;2.03;;
70981;SDS011;58640;51.320;9.456;2022-08-19T14:07:17;2.83;;;1.90;;
70981;SDS011;58640;51.320;9.456;2022-08-19T14:09:42;2.78;;;1.90;;
70981;SDS011;58640;51.320;9.456;2022-08-19T14:12:08;3.22;;;1.85;;
70981;SDS011;58640;51.320;9.456;2022-08-19T14:14:37;2.60;;;2.22;;
70981;SDS011;58640;51.320;9.456;2022-08-19T14:17:06;2.28;;;2.00;;
70981;SDS011;58640;51.320;9.456;2022-08-19T14:19:33;2.90;;;2.00;;
70981;SDS011;58640;51.320;9.456;2022-08-19T14:21:58;3.60;;;1.75;;
70981;SDS011;58640;51.320;9.456;2022-08-19T14:24:23;4.83;;;2.03;;
70981;SDS011;58640;51.320;9.456;2022-08-19T14:26:49;4.35;;;1.92;;
70981;SDS011;58640;51.320;9.456;2022-08-19T14:29:14;5.55;;;1.90;;
70981;SDS011;58640;51.320;9.456;2022-08-19T14:31:40;2.13;;;1.83;;
70981;SDS011;58640;51.320;9.456;2022-08-19T14:34:08;2.15;;;2.00;;
70981;SDS011;58640;51.320;9.456;2022-08-19T14:36:34;2.28;;;2.00;;
70981;SDS011;58640;51.320;9.456;2022-08-19T14:39:00;2.63;;;2.03;;
70981;SDS011;58640;51.320;9.456;2022-08-19T14:41:26;3.58;;;2.00;;
70981;SDS011;58640;51.320;9.456;2022-08-19T14:43:52;4.35;;;2.40;;
70981;SDS011;58640;51.320;9.456;2022-08-19T14:46:20;5.60;;;1.70;;
70981;SDS011;58640;51.320;9.456;2022-08-19T14:48:48;5.90;;;2.00;;
70981;SDS011;58640;51.320;9.456;2022-08-19T14:51:14;3.20;;;2.08;;
70981;SDS011;58640;51.320;9.456;2022-08-19T14:53:40;2.08;;;1.90;;
70981;SDS011;58640;51.320;9.456;2022-08-19T14:56:13;2.90;;;1.73;;
70981;SDS011;58640;51.320;9.456;2022-08-19T14:58:44;2.65;;;2.15;;
70981;SDS011;58640;51.320;9.456;2022-08-19T15:01:10;4.28;;;1.80;;
70981;SDS011;58640;51.320;9.456;2022-08-19T15:03:36;2.05;;;1.95;;
70981;SDS011;58640;51.320;9.456;2022-08-19T15:06:04;3.88;;;1.65;;
70981;SDS011;58640;51.320;9.456;2022-08-19T15:08:31;2.60;;;2.10;;
70981;SDS011;58640;51.320;9.456;2022-08-19T15:10:58;5.82;;;2.15;;
70981;SDS011;58640;51.320;9.456;2022-08-19T15:13:24;3.92;;;2.10;;
70981;SDS011;58640;51.320;9.456;2022-08-19T15:15:52;1.73;;;1.63;;
70981;SDS011;58640;51.320;9.456;2022-08-19T15:18:18;2.13;;;1.95;;
70981;SDS011;58640;51.320;9.456;2022-08-19T15:20:45;2.40;;;1.67;;
70981;SDS011;58640;51.320;9.456;2022-08-19T15:23:11;2.90;;;1.52;;
70981;SDS011;58640;51.320;9.456;2022-08-19T15:25:37;6.00;;;2.17;;
70981;SDS011;58640;51.320;9.456;2022-08-19T15:28:02;2.05;;;1.70;;
70981;SDS011;58640;51.320;9.456;2022-08-19T15:30:28;1.85;;;1.70;;
70981;SDS011;58640;51.320;9.456;2022-08-19T15:32:55;3.55;;;1.85;;
70981;SDS011;58640;51.320;9.456;2022-08-19T15:35:21;2.42;;;1.90;;